Gladiator — EA5097 — position and weather

sailwx.info

Track history (hours):
 
Tides and Currents Weather Stations Pressure Air Temp Water Temp Dewpoint Dewpoint Depression Visibility Wind Speed Wind Dir Waves Ship Positions

Gladiator

Last reported at 2017-Nov-07 10:21 UTC. Time now 2017-Dec-12 04:39 UTC.
Position N 39°34' E 002°38'.
Warning: this ship's position is 34 days out of date.

Length 13 m.

Type: Sailing vessel. MMSI: 225970780.

Date/timePositionNaut miles runAvg speedWind from/ knotsBaromVisibWave heightAir tempDewpointWater temp
2017-Nov-07 10:21N 39°34' E 002°38'0 0.1
2017-Nov-07 10:00N 39°34' E 002°38'1 2.4
2017-Nov-07 09:30N 39°33' E 002°39'2 3.3
2017-Nov-07 09:00N 39°33' E 002°41'2 3.3
2017-Nov-07 08:28N 39°31' E 002°43'1 2.2
2017-Nov-07 07:56N 39°30' E 002°44'1 1.2
2017-Nov-07 07:30N 39°30' E 002°44'1 1.2
2017-Nov-07 06:52N 39°29' E 002°44'0 0.0
2017-Nov-07 06:23N 39°29' E 002°44'1 3.8
2017-Nov-07 06:00N 39°28' E 002°43'3 5.2
2017-Nov-07 05:30N 39°25' E 002°44'10 0.3
2017-Nov-05 15:58N 39°34' E 002°38'1 1.9
2017-Nov-05 15:30N 39°33' E 002°39'1 1.9
2017-Nov-05 15:00N 39°33' E 002°38'3 6.2
2017-Nov-05 14:28N 39°31' E 002°34'0 0.2
2017-Nov-05 12:28N 39°31' E 002°33'1 1.5
2017-Nov-05 12:00N 39°30' E 002°34'3 5.5
2017-Nov-05 11:29N 39°28' E 002°32'3 0.1
2017-Nov-04 11:18N 39°30' E 002°34'1 3.6
2017-Nov-04 10:58N 39°31' E 002°35'2 3.3
2017-Nov-04 10:30N 39°32' E 002°37'2 3.5
2017-Nov-04 09:59N 39°34' E 002°38'0 0.6
2017-Nov-04 09:23N 39°34' E 002°38'0 0.0
2017-Nov-04 08:59N 39°34' E 002°38'0 0.0
2017-Nov-04 08:29N 39°34' E 002°38'0 0.0
2017-Nov-04 07:59N 39°34' E 002°38'0 0.0
2017-Nov-04 07:29N 39°34' E 002°38'0 1.0
2017-Nov-04 07:01N 39°33' E 002°38'3 5.4
2017-Nov-04 06:29N 39°31' E 002°39'2 3.9
2017-Nov-04 06:00N 39°29' E 002°40'3 2.5
2017-Nov-04 04:56N 39°27' E 002°42'2 2.6
2017-Nov-04 04:14N 39°27' E 002°39'1 2.3
2017-Nov-04 03:58N 39°27' E 002°40'5 0.5
2017-Nov-03 17:46N 39°31' E 002°36'1 5.7
2017-Nov-03 17:30N 39°32' E 002°37'2 4.1
2017-Nov-03 17:00N 39°34' E 002°38'2 3.5
2017-Nov-03 16:30N 39°33' E 002°40'3 5.5
2017-Nov-03 16:00N 39°32' E 002°43'2 3.7
2017-Nov-03 15:29N 39°30' E 002°45'3 0.9
2017-Nov-03 12:25N 39°28' E 002°44'2 5.8
2017-Nov-03 12:00N 39°30' E 002°43'2 3.4
2017-Nov-03 11:28N 39°32' E 002°43'1 2.0
2017-Nov-03 11:00N 39°32' E 002°42'3 5.3
2017-Nov-03 10:30N 39°33' E 002°39'  
2017-Oct-29 17:14N 39°34' E 002°38'0 1.5
2017-Oct-29 17:00N 39°34' E 002°38'3 5.0
2017-Oct-29 16:29N 39°32' E 002°36'0 0.4
2017-Oct-29 15:41N 39°32' E 002°35'0 0.0
2017-Oct-29 15:26N 39°32' E 002°35'0 0.0
2017-Oct-29 14:59N 39°32' E 002°35'0 0.0
2017-Oct-29 14:26N 39°32' E 002°35'0 0.0
2017-Oct-29 13:35N 39°32' E 002°35'0 0.0
2017-Oct-29 13:14N 39°32' E 002°35'0 0.0
2017-Oct-29 12:53N 39°32' E 002°35'0 0.0
2017-Oct-29 12:29N 39°32' E 002°35'0 0.0
2017-Oct-29 11:59N 39°32' E 002°35'0 0.1
2017-Oct-29 10:48N 39°32' E 002°35'1 3.8
2017-Oct-29 10:30N 39°32' E 002°37'2 4.0
2017-Oct-29 10:00N 39°34' E 002°38'0 0.3
2017-Oct-29 09:29N 39°34' E 002°38'0 0.0
2017-Oct-29 08:59N 39°34' E 002°38'1 2.5
2017-Oct-29 08:30N 39°33' E 002°39'3 5.7
2017-Oct-29 07:58N 39°31' E 002°42'2 5.0
2017-Oct-29 07:29N 39°29' E 002°44'  
Track history (hours):
 
Tides and Currents Weather Stations Pressure Air Temp Water Temp Dewpoint Dewpoint Depression Visibility Wind Speed Wind Dir Waves Ship Positions

Gladiator

Last reported at 2017-Nov-07 10:21 UTC. Time now 2017-Dec-12 04:39 UTC.
Position N 39°34' E 002°38'.
Warning: this ship's position is 34 days out of date.

Length 13 m.

Type: Sailing vessel. MMSI: 225970780.

Date/timePositionNaut miles runAvg speedWind from/ knotsBaromVisibWave heightAir tempDewpointWater temp
2017-Nov-07 10:21N 39°34' E 002°38'0 0.1
2017-Nov-07 10:00N 39°34' E 002°38'1 2.4
2017-Nov-07 09:30N 39°33' E 002°39'2 3.3
2017-Nov-07 09:00N 39°33' E 002°41'2 3.3
2017-Nov-07 08:28N 39°31' E 002°43'1 2.2
2017-Nov-07 07:56N 39°30' E 002°44'1 1.2
2017-Nov-07 07:30N 39°30' E 002°44'1 1.2
2017-Nov-07 06:52N 39°29' E 002°44'0 0.0
2017-Nov-07 06:23N 39°29' E 002°44'1 3.8
2017-Nov-07 06:00N 39°28' E 002°43'3 5.2
2017-Nov-07 05:30N 39°25' E 002°44'10 0.3
2017-Nov-05 15:58N 39°34' E 002°38'1 1.9
2017-Nov-05 15:30N 39°33' E 002°39'1 1.9
2017-Nov-05 15:00N 39°33' E 002°38'3 6.2
2017-Nov-05 14:28N 39°31' E 002°34'0 0.2
2017-Nov-05 12:28N 39°31' E 002°33'1 1.5
2017-Nov-05 12:00N 39°30' E 002°34'3 5.5
2017-Nov-05 11:29N 39°28' E 002°32'3 0.1
2017-Nov-04 11:18N 39°30' E 002°34'1 3.6
2017-Nov-04 10:58N 39°31' E 002°35'2 3.3
2017-Nov-04 10:30N 39°32' E 002°37'2 3.5
2017-Nov-04 09:59N 39°34' E 002°38'0 0.6
2017-Nov-04 09:23N 39°34' E 002°38'0 0.0
2017-Nov-04 08:59N 39°34' E 002°38'0 0.0
2017-Nov-04 08:29N 39°34' E 002°38'0 0.0
2017-Nov-04 07:59N 39°34' E 002°38'0 0.0
2017-Nov-04 07:29N 39°34' E 002°38'0 1.0
2017-Nov-04 07:01N 39°33' E 002°38'3 5.4
2017-Nov-04 06:29N 39°31' E 002°39'2 3.9
2017-Nov-04 06:00N 39°29' E 002°40'3 2.5
2017-Nov-04 04:56N 39°27' E 002°42'2 2.6
2017-Nov-04 04:14N 39°27' E 002°39'1 2.3
2017-Nov-04 03:58N 39°27' E 002°40'5 0.5
2017-Nov-03 17:46N 39°31' E 002°36'1 5.7
2017-Nov-03 17:30N 39°32' E 002°37'2 4.1
2017-Nov-03 17:00N 39°34' E 002°38'2 3.5
2017-Nov-03 16:30N 39°33' E 002°40'3 5.5
2017-Nov-03 16:00N 39°32' E 002°43'2 3.7
2017-Nov-03 15:29N 39°30' E 002°45'3 0.9
2017-Nov-03 12:25N 39°28' E 002°44'2 5.8
2017-Nov-03 12:00N 39°30' E 002°43'2 3.4
2017-Nov-03 11:28N 39°32' E 002°43'1 2.0
2017-Nov-03 11:00N 39°32' E 002°42'3 5.3
2017-Nov-03 10:30N 39°33' E 002°39'  
2017-Oct-29 17:14N 39°34' E 002°38'0 1.5
2017-Oct-29 17:00N 39°34' E 002°38'3 5.0
2017-Oct-29 16:29N 39°32' E 002°36'0 0.4
2017-Oct-29 15:41N 39°32' E 002°35'0 0.0
2017-Oct-29 15:26N 39°32' E 002°35'0 0.0
2017-Oct-29 14:59N 39°32' E 002°35'0 0.0
2017-Oct-29 14:26N 39°32' E 002°35'0 0.0
2017-Oct-29 13:35N 39°32' E 002°35'0 0.0
2017-Oct-29 13:14N 39°32' E 002°35'0 0.0
2017-Oct-29 12:53N 39°32' E 002°35'0 0.0
2017-Oct-29 12:29N 39°32' E 002°35'0 0.0
2017-Oct-29 11:59N 39°32' E 002°35'0 0.1
2017-Oct-29 10:48N 39°32' E 002°35'1 3.8
2017-Oct-29 10:30N 39°32' E 002°37'2 4.0
2017-Oct-29 10:00N 39°34' E 002°38'0 0.3
2017-Oct-29 09:29N 39°34' E 002°38'0 0.0
2017-Oct-29 08:59N 39°34' E 002°38'1 2.5
2017-Oct-29 08:30N 39°33' E 002°39'3 5.7
2017-Oct-29 07:58N 39°31' E 002°42'2 5.0
2017-Oct-29 07:29N 39°29' E 002°44'  

Dump ship's entire track history